sensor_id;sensor_type;location;lat;lon;timestamp;P1;durP1;ratioP1;P2;durP2;ratioP2
9898;SDS011;4988;49.238;6.698;2023-10-13T00:01:47;18.10;;;8.67;;
9898;SDS011;4988;49.238;6.698;2023-10-13T00:04:13;15.10;;;8.27;;
9898;SDS011;4988;49.238;6.698;2023-10-13T00:06:38;20.03;;;9.03;;
9898;SDS011;4988;49.238;6.698;2023-10-13T00:09:04;16.70;;;8.63;;
9898;SDS011;4988;49.238;6.698;2023-10-13T00:11:29;14.00;;;8.33;;
9898;SDS011;4988;49.238;6.698;2023-10-13T00:13:55;17.93;;;8.77;;
9898;SDS011;4988;49.238;6.698;2023-10-13T00:16:20;25.00;;;7.70;;
9898;SDS011;4988;49.238;6.698;2023-10-13T00:18:47;16.27;;;7.83;;
9898;SDS011;4988;49.238;6.698;2023-10-13T00:21:14;14.50;;;8.47;;
9898;SDS011;4988;49.238;6.698;2023-10-13T00:23:59;14.77;;;8.00;;
9898;SDS011;4988;49.238;6.698;2023-10-13T00:26:27;14.87;;;9.07;;
9898;SDS011;4988;49.238;6.698;2023-10-13T00:28:53;15.10;;;7.93;;
9898;SDS011;4988;49.238;6.698;2023-10-13T00:31:31;19.23;;;8.37;;
9898;SDS011;4988;49.238;6.698;2023-10-13T00:34:01;14.40;;;8.33;;
9898;SDS011;4988;49.238;6.698;2023-10-13T00:36:34;16.63;;;8.60;;
9898;SDS011;4988;49.238;6.698;2023-10-13T00:39:00;15.87;;;7.73;;
9898;SDS011;4988;49.238;6.698;2023-10-13T00:41:26;12.17;;;7.00;;
9898;SDS011;4988;49.238;6.698;2023-10-13T00:44:11;18.30;;;7.87;;
9898;SDS011;4988;49.238;6.698;2023-10-13T00:46:36;16.90;;;7.80;;
9898;SDS011;4988;49.238;6.698;2023-10-13T00:49:04;16.07;;;7.20;;
9898;SDS011;4988;49.238;6.698;2023-10-13T00:51:30;16.53;;;7.50;;
9898;SDS011;4988;49.238;6.698;2023-10-13T00:54:06;15.07;;;7.67;;
9898;SDS011;4988;49.238;6.698;2023-10-13T00:56:33;14.10;;;7.03;;
9898;SDS011;4988;49.238;6.698;2023-10-13T00:58:59;17.87;;;8.03;;
9898;SDS011;4988;49.238;6.698;2023-10-13T01:01:27;17.37;;;7.80;;
9898;SDS011;4988;49.238;6.698;2023-10-13T01:03:59;15.37;;;7.80;;
9898;SDS011;4988;49.238;6.698;2023-10-13T01:06:25;16.90;;;8.43;;
9898;SDS011;4988;49.238;6.698;2023-10-13T01:09:02;15.73;;;7.80;;
9898;SDS011;4988;49.238;6.698;2023-10-13T01:11:45;13.73;;;7.70;;
9898;SDS011;4988;49.238;6.698;2023-10-13T01:14:13;15.53;;;7.33;;
9898;SDS011;4988;49.238;6.698;2023-10-13T01:16:42;16.93;;;8.90;;
9898;SDS011;4988;49.238;6.698;2023-10-13T01:19:14;20.13;;;8.10;;
9898;SDS011;4988;49.238;6.698;2023-10-13T01:21:47;14.57;;;7.53;;
9898;SDS011;4988;49.238;6.698;2023-10-13T01:24:13;14.90;;;6.57;;
9898;SDS011;4988;49.238;6.698;2023-10-13T01:26:43;12.43;;;6.20;;
9898;SDS011;4988;49.238;6.698;2023-10-13T01:29:09;14.73;;;6.57;;
9898;SDS011;4988;49.238;6.698;2023-10-13T01:31:39;13.60;;;6.33;;
9898;SDS011;4988;49.238;6.698;2023-10-13T01:34:14;10.57;;;6.30;;
9898;SDS011;4988;49.238;6.698;2023-10-13T01:39:16;11.60;;;6.50;;
9898;SDS011;4988;49.238;6.698;2023-10-13T01:41:42;12.00;;;6.57;;
9898;SDS011;4988;49.238;6.698;2023-10-13T01:44:08;10.30;;;6.10;;
9898;SDS011;4988;49.238;6.698;2023-10-13T01:46:36;15.63;;;7.20;;
9898;SDS011;4988;49.238;6.698;2023-10-13T01:49:02;12.57;;;6.80;;
9898;SDS011;4988;49.238;6.698;2023-10-13T01:51:28;15.83;;;6.90;;
9898;SDS011;4988;49.238;6.698;2023-10-13T01:53:53;13.73;;;6.57;;
9898;SDS011;4988;49.238;6.698;2023-10-13T01:56:22;14.27;;;6.80;;
9898;SDS011;4988;49.238;6.698;2023-10-13T01:58:48;13.37;;;6.47;;
9898;SDS011;4988;49.238;6.698;2023-10-13T02:01:14;15.80;;;6.83;;
9898;SDS011;4988;49.238;6.698;2023-10-13T02:03:51;14.50;;;6.93;;
9898;SDS011;4988;49.238;6.698;2023-10-13T02:06:28;14.80;;;7.73;;
9898;SDS011;4988;49.238;6.698;2023-10-13T02:08:58;13.20;;;6.80;;
9898;SDS011;4988;49.238;6.698;2023-10-13T02:11:30;17.40;;;7.03;;
9898;SDS011;4988;49.238;6.698;2023-10-13T02:13:56;15.47;;;6.77;;
9898;SDS011;4988;49.238;6.698;2023-10-13T02:16:22;14.30;;;6.97;;
9898;SDS011;4988;49.238;6.698;2023-10-13T02:18:50;12.43;;;6.60;;
9898;SDS011;4988;49.238;6.698;2023-10-13T02:21:17;14.20;;;6.10;;
9898;SDS011;4988;49.238;6.698;2023-10-13T02:23:42;14.87;;;6.77;;
9898;SDS011;4988;49.238;6.698;2023-10-13T02:26:11;17.83;;;6.70;;
9898;SDS011;4988;49.238;6.698;2023-10-13T02:28:46;14.27;;;6.87;;
9898;SDS011;4988;49.238;6.698;2023-10-13T02:31:16;14.00;;;7.23;;
9898;SDS011;4988;49.238;6.698;2023-10-13T02:33:44;14.90;;;7.27;;
9898;SDS011;4988;49.238;6.698;2023-10-13T02:36:10;15.60;;;6.73;;
9898;SDS011;4988;49.238;6.698;2023-10-13T02:38:37;19.53;;;7.30;;
9898;SDS011;4988;49.238;6.698;2023-10-13T02:41:15;18.93;;;7.23;;
9898;SDS011;4988;49.238;6.698;2023-10-13T02:43:51;14.53;;;6.60;;
9898;SDS011;4988;49.238;6.698;2023-10-13T02:46:18;20.23;;;7.93;;
9898;SDS011;4988;49.238;6.698;2023-10-13T02:48:46;17.23;;;7.03;;
9898;SDS011;4988;49.238;6.698;2023-10-13T02:51:18;17.57;;;7.13;;
9898;SDS011;4988;49.238;6.698;2023-10-13T02:53:47;16.33;;;7.53;;
9898;SDS011;4988;49.238;6.698;2023-10-13T02:56:17;17.80;;;7.23;;
9898;SDS011;4988;49.238;6.698;2023-10-13T02:58:52;20.57;;;6.83;;
9898;SDS011;4988;49.238;6.698;2023-10-13T03:01:38;19.60;;;7.23;;
9898;SDS011;4988;49.238;6.698;2023-10-13T03:04:04;13.03;;;6.33;;
9898;SDS011;4988;49.238;6.698;2023-10-13T03:06:33;14.53;;;7.17;;
9898;SDS011;4988;49.238;6.698;2023-10-13T03:08:59;17.53;;;7.23;;
9898;SDS011;4988;49.238;6.698;2023-10-13T03:11:43;14.13;;;6.50;;
9898;SDS011;4988;49.238;6.698;2023-10-13T03:14:14;14.73;;;6.70;;
9898;SDS011;4988;49.238;6.698;2023-10-13T03:16:50;12.97;;;6.20;;
9898;SDS011;4988;49.238;6.698;2023-10-13T03:19:20;15.83;;;6.87;;
9898;SDS011;4988;49.238;6.698;2023-10-13T03:21:46;13.87;;;6.43;;
9898;SDS011;4988;49.238;6.698;2023-10-13T03:24:20;16.47;;;6.33;;
9898;SDS011;4988;49.238;6.698;2023-10-13T03:26:58;12.10;;;6.17;;
9898;SDS011;4988;49.238;6.698;2023-10-13T03:29:24;14.37;;;6.57;;
9898;SDS011;4988;49.238;6.698;2023-10-13T03:31:49;12.37;;;6.60;;
9898;SDS011;4988;49.238;6.698;2023-10-13T03:34:31;14.47;;;6.63;;
9898;SDS011;4988;49.238;6.698;2023-10-13T03:36:57;14.23;;;6.90;;
9898;SDS011;4988;49.238;6.698;2023-10-13T03:39:22;16.13;;;6.77;;
9898;SDS011;4988;49.238;6.698;2023-10-13T03:41:55;19.80;;;6.70;;
9898;SDS011;4988;49.238;6.698;2023-10-13T03:44:22;14.93;;;7.10;;
9898;SDS011;4988;49.238;6.698;2023-10-13T03:46:48;13.17;;;6.30;;
9898;SDS011;4988;49.238;6.698;2023-10-13T03:49:16;15.67;;;6.40;;
9898;SDS011;4988;49.238;6.698;2023-10-13T03:51:47;17.80;;;6.90;;
9898;SDS011;4988;49.238;6.698;2023-10-13T03:54:13;18.07;;;7.50;;
9898;SDS011;4988;49.238;6.698;2023-10-13T03:56:41;15.87;;;8.57;;
9898;SDS011;4988;49.238;6.698;2023-10-13T03:59:09;15.33;;;7.30;;
9898;SDS011;4988;49.238;6.698;2023-10-13T04:01:42;13.83;;;7.00;;
9898;SDS011;4988;49.238;6.698;2023-10-13T04:04:16;14.00;;;6.93;;
9898;SDS011;4988;49.238;6.698;2023-10-13T04:07:18;17.93;;;6.70;;
9898;SDS011;4988;49.238;6.698;2023-10-13T04:10:02;15.23;;;6.80;;
9898;SDS011;4988;49.238;6.698;2023-10-13T04:13:02;17.97;;;6.63;;
9898;SDS011;4988;49.238;6.698;2023-10-13T04:15:46;13.37;;;7.30;;
9898;SDS011;4988;49.238;6.698;2023-10-13T04:18:30;12.40;;;6.80;;
9898;SDS011;4988;49.238;6.698;2023-10-13T04:21:16;12.70;;;7.27;;
9898;SDS011;4988;49.238;6.698;2023-10-13T04:24:04;10.77;;;6.67;;
9898;SDS011;4988;49.238;6.698;2023-10-13T04:26:34;14.17;;;7.33;;
9898;SDS011;4988;49.238;6.698;2023-10-13T04:29:07;16.10;;;7.10;;
9898;SDS011;4988;49.238;6.698;2023-10-13T04:31:55;15.73;;;6.13;;
9898;SDS011;4988;49.238;6.698;2023-10-13T04:34:25;21.43;;;7.70;;
9898;SDS011;4988;49.238;6.698;2023-10-13T04:37:00;16.03;;;7.17;;
9898;SDS011;4988;49.238;6.698;2023-10-13T04:39:45;19.10;;;7.50;;
9898;SDS011;4988;49.238;6.698;2023-10-13T04:42:10;13.27;;;6.57;;
9898;SDS011;4988;49.238;6.698;2023-10-13T04:44:38;15.43;;;7.07;;
9898;SDS011;4988;49.238;6.698;2023-10-13T04:47:13;15.43;;;6.40;;
9898;SDS011;4988;49.238;6.698;2023-10-13T04:49:46;17.27;;;7.13;;
9898;SDS011;4988;49.238;6.698;2023-10-13T04:52:12;19.50;;;7.40;;
9898;SDS011;4988;49.238;6.698;2023-10-13T04:54:41;29.37;;;9.50;;
9898;SDS011;4988;49.238;6.698;2023-10-13T04:57:19;20.30;;;9.37;;
9898;SDS011;4988;49.238;6.698;2023-10-13T05:00:00;18.60;;;7.73;;
9898;SDS011;4988;49.238;6.698;2023-10-13T05:02:45;16.97;;;7.43;;
9898;SDS011;4988;49.238;6.698;2023-10-13T05:05:22;16.13;;;8.00;;
9898;SDS011;4988;49.238;6.698;2023-10-13T05:07:50;21.37;;;7.40;;
9898;SDS011;4988;49.238;6.698;2023-10-13T05:10:35;22.93;;;8.13;;
9898;SDS011;4988;49.238;6.698;2023-10-13T05:13:19;14.93;;;6.87;;
9898;SDS011;4988;49.238;6.698;2023-10-13T05:16:03;15.97;;;7.13;;
9898;SDS011;4988;49.238;6.698;2023-10-13T05:18:47;14.57;;;7.43;;
9898;SDS011;4988;49.238;6.698;2023-10-13T05:21:31;16.93;;;7.33;;
9898;SDS011;4988;49.238;6.698;2023-10-13T05:24:15;18.17;;;7.50;;
9898;SDS011;4988;49.238;6.698;2023-10-13T05:26:59;13.90;;;6.90;;
9898;SDS011;4988;49.238;6.698;2023-10-13T05:29:44;15.27;;;7.23;;
9898;SDS011;4988;49.238;6.698;2023-10-13T05:32:29;16.83;;;7.87;;
9898;SDS011;4988;49.238;6.698;2023-10-13T05:35:13;14.57;;;7.67;;
9898;SDS011;4988;49.238;6.698;2023-10-13T05:37:58;22.67;;;7.73;;
9898;SDS011;4988;49.238;6.698;2023-10-13T05:43:55;18.97;;;7.93;;
9898;SDS011;4988;49.238;6.698;2023-10-13T05:46:39;13.07;;;7.50;;
9898;SDS011;4988;49.238;6.698;2023-10-13T05:49:05;19.67;;;8.20;;
9898;SDS011;4988;49.238;6.698;2023-10-13T05:51:52;19.83;;;8.63;;
9898;SDS011;4988;49.238;6.698;2023-10-13T05:54:17;18.40;;;8.30;;
9898;SDS011;4988;49.238;6.698;2023-10-13T05:56:46;20.27;;;8.03;;
9898;SDS011;4988;49.238;6.698;2023-10-13T05:59:34;20.53;;;9.07;;
9898;SDS011;4988;49.238;6.698;2023-10-13T06:02:20;19.20;;;8.30;;
9898;SDS011;4988;49.238;6.698;2023-10-13T06:05:06;18.17;;;9.30;;
9898;SDS011;4988;49.238;6.698;2023-10-13T06:07:51;17.77;;;8.63;;
9898;SDS011;4988;49.238;6.698;2023-10-13T06:10:36;19.03;;;9.90;;
9898;SDS011;4988;49.238;6.698;2023-10-13T06:13:21;21.07;;;9.63;;
9898;SDS011;4988;49.238;6.698;2023-10-13T06:16:05;21.63;;;10.13;;
9898;SDS011;4988;49.238;6.698;2023-10-13T06:18:50;20.63;;;10.07;;
9898;SDS011;4988;49.238;6.698;2023-10-13T06:21:34;22.20;;;9.90;;
9898;SDS011;4988;49.238;6.698;2023-10-13T06:24:18;21.77;;;11.53;;
9898;SDS011;4988;49.238;6.698;2023-10-13T06:27:02;28.63;;;11.60;;
9898;SDS011;4988;49.238;6.698;2023-10-13T06:29:46;22.77;;;11.50;;
9898;SDS011;4988;49.238;6.698;2023-10-13T06:32:12;24.93;;;10.90;;
9898;SDS011;4988;49.238;6.698;2023-10-13T06:34:37;20.87;;;10.53;;
9898;SDS011;4988;49.238;6.698;2023-10-13T06:37:10;23.17;;;11.50;;
9898;SDS011;4988;49.238;6.698;2023-10-13T06:39:51;23.03;;;11.60;;
9898;SDS011;4988;49.238;6.698;2023-10-13T06:42:38;25.13;;;11.60;;
9898;SDS011;4988;49.238;6.698;2023-10-13T06:45:07;26.27;;;11.83;;
9898;SDS011;4988;49.238;6.698;2023-10-13T06:47:37;21.80;;;11.30;;
9898;SDS011;4988;49.238;6.698;2023-10-13T06:50:11;27.07;;;11.07;;
9898;SDS011;4988;49.238;6.698;2023-10-13T06:52:42;24.13;;;10.20;;
9898;SDS011;4988;49.238;6.698;2023-10-13T06:55:08;25.57;;;11.23;;
9898;SDS011;4988;49.238;6.698;2023-10-13T06:57:42;22.17;;;10.87;;
9898;SDS011;4988;49.238;6.698;2023-10-13T07:00:12;21.17;;;10.90;;
9898;SDS011;4988;49.238;6.698;2023-10-13T07:02:56;25.10;;;11.07;;
9898;SDS011;4988;49.238;6.698;2023-10-13T07:05:38;23.80;;;11.23;;
9898;SDS011;4988;49.238;6.698;2023-10-13T07:08:05;24.97;;;10.10;;
9898;SDS011;4988;49.238;6.698;2023-10-13T07:10:30;25.70;;;10.20;;
9898;SDS011;4988;49.238;6.698;2023-10-13T07:12:57;20.23;;;11.10;;
9898;SDS011;4988;49.238;6.698;2023-10-13T07:15:25;19.77;;;10.87;;
9898;SDS011;4988;49.238;6.698;2023-10-13T07:17:52;23.07;;;10.50;;
9898;SDS011;4988;49.238;6.698;2023-10-13T07:20:24;21.63;;;11.40;;
9898;SDS011;4988;49.238;6.698;2023-10-13T07:22:58;22.97;;;10.50;;
9898;SDS011;4988;49.238;6.698;2023-10-13T07:25:31;24.43;;;11.50;;
9898;SDS011;4988;49.238;6.698;2023-10-13T07:28:02;17.40;;;9.90;;
9898;SDS011;4988;49.238;6.698;2023-10-13T07:30:28;19.23;;;10.77;;
9898;SDS011;4988;49.238;6.698;2023-10-13T07:32:56;21.87;;;10.70;;
9898;SDS011;4988;49.238;6.698;2023-10-13T07:35:24;18.77;;;10.30;;
9898;SDS011;4988;49.238;6.698;2023-10-13T07:37:51;20.83;;;10.07;;
9898;SDS011;4988;49.238;6.698;2023-10-13T07:40:18;21.83;;;10.53;;
9898;SDS011;4988;49.238;6.698;2023-10-13T07:43:04;18.20;;;10.47;;
9898;SDS011;4988;49.238;6.698;2023-10-13T07:45:35;21.80;;;10.80;;
9898;SDS011;4988;49.238;6.698;2023-10-13T07:48:02;20.20;;;10.77;;
9898;SDS011;4988;49.238;6.698;2023-10-13T07:50:37;28.33;;;10.77;;
9898;SDS011;4988;49.238;6.698;2023-10-13T07:53:03;27.30;;;11.03;;
9898;SDS011;4988;49.238;6.698;2023-10-13T07:55:50;26.23;;;11.13;;
9898;SDS011;4988;49.238;6.698;2023-10-13T07:58:22;19.17;;;10.00;;
9898;SDS011;4988;49.238;6.698;2023-10-13T08:00:50;25.53;;;11.03;;
9898;SDS011;4988;49.238;6.698;2023-10-13T08:03:24;22.00;;;9.73;;
9898;SDS011;4988;49.238;6.698;2023-10-13T08:06:07;26.67;;;10.73;;
9898;SDS011;4988;49.238;6.698;2023-10-13T08:08:33;21.90;;;9.73;;
9898;SDS011;4988;49.238;6.698;2023-10-13T08:11:05;24.57;;;9.70;;
9898;SDS011;4988;49.238;6.698;2023-10-13T08:13:50;20.97;;;10.33;;
9898;SDS011;4988;49.238;6.698;2023-10-13T08:16:35;17.87;;;9.97;;
9898;SDS011;4988;49.238;6.698;2023-10-13T08:19:20;17.97;;;9.57;;
9898;SDS011;4988;49.238;6.698;2023-10-13T08:21:52;21.37;;;10.30;;
9898;SDS011;4988;49.238;6.698;2023-10-13T08:24:23;18.67;;;10.33;;
9898;SDS011;4988;49.238;6.698;2023-10-13T08:26:54;22.13;;;10.37;;
9898;SDS011;4988;49.238;6.698;2023-10-13T08:29:46;20.37;;;9.70;;
9898;SDS011;4988;49.238;6.698;2023-10-13T08:32:21;20.77;;;10.07;;
9898;SDS011;4988;49.238;6.698;2023-10-13T08:35:01;20.10;;;9.27;;
9898;SDS011;4988;49.238;6.698;2023-10-13T08:37:30;17.50;;;8.73;;
9898;SDS011;4988;49.238;6.698;2023-10-13T08:40:12;20.50;;;9.27;;
9898;SDS011;4988;49.238;6.698;2023-10-13T08:42:57;21.13;;;9.10;;
9898;SDS011;4988;49.238;6.698;2023-10-13T08:45:28;22.47;;;8.83;;
9898;SDS011;4988;49.238;6.698;2023-10-13T08:47:56;15.03;;;9.10;;
9898;SDS011;4988;49.238;6.698;2023-10-13T08:50:44;19.47;;;9.97;;
9898;SDS011;4988;49.238;6.698;2023-10-13T08:53:20;19.77;;;9.67;;
9898;SDS011;4988;49.238;6.698;2023-10-13T08:55:52;22.03;;;10.20;;
9898;SDS011;4988;49.238;6.698;2023-10-13T08:58:37;20.67;;;9.17;;
9898;SDS011;4988;49.238;6.698;2023-10-13T09:01:27;20.23;;;9.17;;
9898;SDS011;4988;49.238;6.698;2023-10-13T09:04:00;16.13;;;8.50;;
9898;SDS011;4988;49.238;6.698;2023-10-13T09:06:56;16.23;;;8.27;;
9898;SDS011;4988;49.238;6.698;2023-10-13T09:09:28;19.80;;;8.90;;
9898;SDS011;4988;49.238;6.698;2023-10-13T09:12:16;13.93;;;8.43;;
9898;SDS011;4988;49.238;6.698;2023-10-13T09:14:55;18.90;;;8.63;;
9898;SDS011;4988;49.238;6.698;2023-10-13T09:17:29;17.17;;;7.77;;
9898;SDS011;4988;49.238;6.698;2023-10-13T09:19:58;16.70;;;8.07;;
9898;SDS011;4988;49.238;6.698;2023-10-13T09:22:28;16.20;;;8.20;;
9898;SDS011;4988;49.238;6.698;2023-10-13T09:25:01;14.10;;;8.13;;
9898;SDS011;4988;49.238;6.698;2023-10-13T09:27:30;14.60;;;7.60;;
9898;SDS011;4988;49.238;6.698;2023-10-13T09:30:03;15.27;;;8.00;;
9898;SDS011;4988;49.238;6.698;2023-10-13T09:32:43;13.90;;;7.37;;
9898;SDS011;4988;49.238;6.698;2023-10-13T09:35:16;13.50;;;6.97;;
9898;SDS011;4988;49.238;6.698;2023-10-13T09:37:50;17.60;;;8.20;;
9898;SDS011;4988;49.238;6.698;2023-10-13T09:40:17;14.13;;;7.40;;
9898;SDS011;4988;49.238;6.698;2023-10-13T09:43:12;17.10;;;7.40;;
9898;SDS011;4988;49.238;6.698;2023-10-13T09:45:40;15.40;;;7.40;;
9898;SDS011;4988;49.238;6.698;2023-10-13T09:48:22;18.03;;;7.00;;
9898;SDS011;4988;49.238;6.698;2023-10-13T09:51:16;13.03;;;6.47;;
9898;SDS011;4988;49.238;6.698;2023-10-13T09:53:56;15.53;;;7.13;;
9898;SDS011;4988;49.238;6.698;2023-10-13T09:56:32;14.03;;;7.40;;
9898;SDS011;4988;49.238;6.698;2023-10-13T09:59:17;15.00;;;6.93;;
9898;SDS011;4988;49.238;6.698;2023-10-13T10:01:48;15.57;;;7.10;;
9898;SDS011;4988;49.238;6.698;2023-10-13T10:04:17;14.77;;;6.70;;
9898;SDS011;4988;49.238;6.698;2023-10-13T10:09:29;10.57;;;6.23;;
9898;SDS011;4988;49.238;6.698;2023-10-13T10:17:09;15.90;;;6.50;;
9898;SDS011;4988;49.238;6.698;2023-10-13T10:22:26;15.63;;;6.80;;
9898;SDS011;4988;49.238;6.698;2023-10-13T10:25:02;13.67;;;6.40;;
9898;SDS011;4988;49.238;6.698;2023-10-13T10:27:32;13.80;;;6.93;;
9898;SDS011;4988;49.238;6.698;2023-10-13T10:29:58;12.03;;;6.37;;
9898;SDS011;4988;49.238;6.698;2023-10-13T10:32:34;17.00;;;6.60;;
9898;SDS011;4988;49.238;6.698;2023-10-13T10:35:04;14.03;;;6.70;;
9898;SDS011;4988;49.238;6.698;2023-10-13T10:37:40;12.93;;;6.40;;
9898;SDS011;4988;49.238;6.698;2023-10-13T10:40:12;14.47;;;6.37;;
9898;SDS011;4988;49.238;6.698;2023-10-13T10:43:06;18.80;;;5.97;;
9898;SDS011;4988;49.238;6.698;2023-10-13T10:45:37;15.30;;;6.23;;
9898;SDS011;4988;49.238;6.698;2023-10-13T10:48:11;13.33;;;6.17;;
9898;SDS011;4988;49.238;6.698;2023-10-13T10:50:55;12.00;;;6.33;;
9898;SDS011;4988;49.238;6.698;2023-10-13T10:53:21;13.40;;;6.17;;
9898;SDS011;4988;49.238;6.698;2023-10-13T10:56:08;11.67;;;6.07;;
9898;SDS011;4988;49.238;6.698;2023-10-13T10:58:45;13.10;;;5.90;;
9898;SDS011;4988;49.238;6.698;2023-10-13T11:01:30;12.97;;;6.97;;
9898;SDS011;4988;49.238;6.698;2023-10-13T11:04:12;14.53;;;5.97;;
9898;SDS011;4988;49.238;6.698;2023-10-13T11:09:23;11.10;;;6.13;;
9898;SDS011;4988;49.238;6.698;2023-10-13T11:11:51;17.77;;;6.63;;
9898;SDS011;4988;49.238;6.698;2023-10-13T11:14:28;13.30;;;6.10;;
9898;SDS011;4988;49.238;6.698;2023-10-13T11:16:55;11.07;;;5.60;;
9898;SDS011;4988;49.238;6.698;2023-10-13T11:19:39;11.70;;;5.73;;
9898;SDS011;4988;49.238;6.698;2023-10-13T11:22:18;11.47;;;5.67;;
9898;SDS011;4988;49.238;6.698;2023-10-13T11:25:00;15.47;;;6.07;;
9898;SDS011;4988;49.238;6.698;2023-10-13T11:27:39;15.03;;;6.23;;
9898;SDS011;4988;49.238;6.698;2023-10-13T11:30:20;20.17;;;6.33;;
9898;SDS011;4988;49.238;6.698;2023-10-13T11:33:03;14.37;;;6.50;;
9898;SDS011;4988;49.238;6.698;2023-10-13T11:35:31;12.00;;;5.93;;
9898;SDS011;4988;49.238;6.698;2023-10-13T11:38:18;15.63;;;5.53;;
9898;SDS011;4988;49.238;6.698;2023-10-13T11:40:58;14.90;;;6.17;;
9898;SDS011;4988;49.238;6.698;2023-10-13T11:43:38;14.93;;;5.80;;
9898;SDS011;4988;49.238;6.698;2023-10-13T11:46:08;16.70;;;6.07;;
9898;SDS011;4988;49.238;6.698;2023-10-13T11:48:34;12.27;;;5.53;;
9898;SDS011;4988;49.238;6.698;2023-10-13T11:51:01;13.97;;;5.93;;
9898;SDS011;4988;49.238;6.698;2023-10-13T11:53:36;12.37;;;5.87;;
9898;SDS011;4988;49.238;6.698;2023-10-13T11:56:05;21.03;;;6.53;;
9898;SDS011;4988;49.238;6.698;2023-10-13T11:58:39;15.13;;;6.30;;
9898;SDS011;4988;49.238;6.698;2023-10-13T12:01:05;11.10;;;5.73;;
9898;SDS011;4988;49.238;6.698;2023-10-13T12:03:40;14.57;;;5.87;;
9898;SDS011;4988;49.238;6.698;2023-10-13T12:06:28;17.67;;;6.00;;
9898;SDS011;4988;49.238;6.698;2023-10-13T12:08:59;10.47;;;5.63;;
9898;SDS011;4988;49.238;6.698;2023-10-13T12:11:45;11.37;;;5.97;;
9898;SDS011;4988;49.238;6.698;2023-10-13T12:14:13;14.63;;;5.67;;
9898;SDS011;4988;49.238;6.698;2023-10-13T12:16:48;9.90;;;5.53;;
9898;SDS011;4988;49.238;6.698;2023-10-13T12:19:22;11.80;;;5.63;;
9898;SDS011;4988;49.238;6.698;2023-10-13T12:21:55;10.07;;;5.70;;
9898;SDS011;4988;49.238;6.698;2023-10-13T12:24:21;13.10;;;5.90;;
9898;SDS011;4988;49.238;6.698;2023-10-13T12:26:56;14.43;;;5.87;;
9898;SDS011;4988;49.238;6.698;2023-10-13T12:29:25;12.60;;;5.90;;
9898;SDS011;4988;49.238;6.698;2023-10-13T12:31:56;13.87;;;6.13;;
9898;SDS011;4988;49.238;6.698;2023-10-13T12:34:37;16.60;;;6.00;;
9898;SDS011;4988;49.238;6.698;2023-10-13T12:37:32;13.87;;;5.90;;
9898;SDS011;4988;49.238;6.698;2023-10-13T12:40:27;23.03;;;5.80;;
9898;SDS011;4988;49.238;6.698;2023-10-13T12:43:11;14.10;;;5.80;;
9898;SDS011;4988;49.238;6.698;2023-10-13T12:45:55;12.83;;;6.10;;
9898;SDS011;4988;49.238;6.698;2023-10-13T12:48:39;13.40;;;6.13;;
9898;SDS011;4988;49.238;6.698;2023-10-13T12:51:22;16.13;;;6.20;;
9898;SDS011;4988;49.238;6.698;2023-10-13T12:53:54;13.97;;;5.90;;
9898;SDS011;4988;49.238;6.698;2023-10-13T12:56:29;14.50;;;6.03;;
9898;SDS011;4988;49.238;6.698;2023-10-13T12:58:55;17.40;;;6.60;;
9898;SDS011;4988;49.238;6.698;2023-10-13T13:01:21;18.23;;;5.93;;
9898;SDS011;4988;49.238;6.698;2023-10-13T13:03:48;11.87;;;5.50;;
9898;SDS011;4988;49.238;6.698;2023-10-13T13:06:21;9.50;;;5.37;;
9898;SDS011;4988;49.238;6.698;2023-10-13T13:08:53;11.50;;;5.50;;
9898;SDS011;4988;49.238;6.698;2023-10-13T13:11:19;13.53;;;5.60;;
9898;SDS011;4988;49.238;6.698;2023-10-13T13:13:45;10.87;;;5.50;;
9898;SDS011;4988;49.238;6.698;2023-10-13T13:16:16;12.40;;;5.57;;
9898;SDS011;4988;49.238;6.698;2023-10-13T13:18:44;12.13;;;5.47;;
9898;SDS011;4988;49.238;6.698;2023-10-13T13:21:09;11.90;;;5.13;;
9898;SDS011;4988;49.238;6.698;2023-10-13T13:23:37;17.50;;;5.07;;
9898;SDS011;4988;49.238;6.698;2023-10-13T13:26:05;10.90;;;5.20;;
9898;SDS011;4988;49.238;6.698;2023-10-13T13:28:40;14.43;;;6.03;;
9898;SDS011;4988;49.238;6.698;2023-10-13T13:31:09;11.67;;;5.53;;
9898;SDS011;4988;49.238;6.698;2023-10-13T13:33:37;15.07;;;5.33;;
9898;SDS011;4988;49.238;6.698;2023-10-13T13:36:08;13.47;;;5.17;;
9898;SDS011;4988;49.238;6.698;2023-10-13T13:38:38;11.80;;;5.57;;
9898;SDS011;4988;49.238;6.698;2023-10-13T13:41:05;15.50;;;5.70;;
9898;SDS011;4988;49.238;6.698;2023-10-13T13:43:40;10.17;;;5.10;;
9898;SDS011;4988;49.238;6.698;2023-10-13T13:46:15;15.03;;;5.50;;
9898;SDS011;4988;49.238;6.698;2023-10-13T13:48:42;12.43;;;5.30;;
9898;SDS011;4988;49.238;6.698;2023-10-13T13:51:07;12.00;;;5.10;;
9898;SDS011;4988;49.238;6.698;2023-10-13T13:53:43;14.83;;;5.13;;
9898;SDS011;4988;49.238;6.698;2023-10-13T13:56:13;11.90;;;4.93;;
9898;SDS011;4988;49.238;6.698;2023-10-13T13:58:46;16.40;;;4.87;;
9898;SDS011;4988;49.238;6.698;2023-10-13T14:01:15;10.83;;;4.90;;
9898;SDS011;4988;49.238;6.698;2023-10-13T14:03:43;13.97;;;5.10;;
9898;SDS011;4988;49.238;6.698;2023-10-13T14:06:20;13.33;;;4.63;;
9898;SDS011;4988;49.238;6.698;2023-10-13T14:08:52;14.40;;;4.70;;
9898;SDS011;4988;49.238;6.698;2023-10-13T14:11:21;10.13;;;4.70;;
9898;SDS011;4988;49.238;6.698;2023-10-13T14:14:11;12.67;;;5.13;;
9898;SDS011;4988;49.238;6.698;2023-10-13T14:16:42;12.97;;;4.57;;
9898;SDS011;4988;49.238;6.698;2023-10-13T14:19:12;14.13;;;5.03;;
9898;SDS011;4988;49.238;6.698;2023-10-13T14:21:44;12.77;;;4.80;;
9898;SDS011;4988;49.238;6.698;2023-10-13T14:24:09;12.60;;;4.90;;
9898;SDS011;4988;49.238;6.698;2023-10-13T14:26:39;13.70;;;5.03;;
9898;SDS011;4988;49.238;6.698;2023-10-13T14:29:05;11.73;;;5.40;;
9898;SDS011;4988;49.238;6.698;2023-10-13T14:31:33;12.73;;;5.03;;
9898;SDS011;4988;49.238;6.698;2023-10-13T14:34:03;11.60;;;4.70;;
9898;SDS011;4988;49.238;6.698;2023-10-13T14:36:28;13.47;;;4.73;;
9898;SDS011;4988;49.238;6.698;2023-10-13T14:38:54;12.03;;;4.70;;
9898;SDS011;4988;49.238;6.698;2023-10-13T14:41:20;13.33;;;4.60;;
9898;SDS011;4988;49.238;6.698;2023-10-13T14:43:46;12.57;;;4.53;;
9898;SDS011;4988;49.238;6.698;2023-10-13T14:46:15;14.07;;;4.83;;
9898;SDS011;4988;49.238;6.698;2023-10-13T14:48:42;10.37;;;5.07;;
9898;SDS011;4988;49.238;6.698;2023-10-13T14:51:11;10.53;;;4.70;;
9898;SDS011;4988;49.238;6.698;2023-10-13T14:53:41;9.67;;;4.63;;
9898;SDS011;4988;49.238;6.698;2023-10-13T14:56:12;13.97;;;4.80;;
9898;SDS011;4988;49.238;6.698;2023-10-13T14:58:41;9.17;;;4.73;;
9898;SDS011;4988;49.238;6.698;2023-10-13T15:01:15;12.90;;;4.73;;
9898;SDS011;4988;49.238;6.698;2023-10-13T15:03:42;9.57;;;4.87;;
9898;SDS011;4988;49.238;6.698;2023-10-13T15:06:15;13.00;;;5.00;;
9898;SDS011;4988;49.238;6.698;2023-10-13T15:08:46;11.93;;;4.63;;
9898;SDS011;4988;49.238;6.698;2023-10-13T15:11:12;15.33;;;4.30;;
9898;SDS011;4988;49.238;6.698;2023-10-13T15:13:41;9.83;;;4.47;;
9898;SDS011;4988;49.238;6.698;2023-10-13T15:16:16;13.07;;;5.10;;
9898;SDS011;4988;49.238;6.698;2023-10-13T15:18:46;12.57;;;4.83;;
9898;SDS011;4988;49.238;6.698;2023-10-13T15:21:19;13.17;;;4.50;;
9898;SDS011;4988;49.238;6.698;2023-10-13T15:23:49;12.10;;;4.50;;
9898;SDS011;4988;49.238;6.698;2023-10-13T15:26:16;11.53;;;4.40;;
9898;SDS011;4988;49.238;6.698;2023-10-13T15:28:49;11.63;;;4.70;;
9898;SDS011;4988;49.238;6.698;2023-10-13T15:31:18;8.30;;;4.60;;
9898;SDS011;4988;49.238;6.698;2023-10-13T15:33:50;12.03;;;4.30;;
9898;SDS011;4988;49.238;6.698;2023-10-13T15:36:19;9.87;;;4.27;;
9898;SDS011;4988;49.238;6.698;2023-10-13T15:38:50;14.57;;;4.30;;
9898;SDS011;4988;49.238;6.698;2023-10-13T15:43:48;11.00;;;4.50;;
9898;SDS011;4988;49.238;6.698;2023-10-13T15:46:21;13.77;;;4.73;;
9898;SDS011;4988;49.238;6.698;2023-10-13T15:48:51;10.30;;;4.63;;
9898;SDS011;4988;49.238;6.698;2023-10-13T15:51:17;13.77;;;4.40;;
9898;SDS011;4988;49.238;6.698;2023-10-13T15:53:43;12.20;;;4.23;;
9898;SDS011;4988;49.238;6.698;2023-10-13T15:56:12;8.10;;;4.00;;
9898;SDS011;4988;49.238;6.698;2023-10-13T15:58:39;11.87;;;4.60;;
9898;SDS011;4988;49.238;6.698;2023-10-13T16:01:10;10.17;;;4.40;;